Time;durP1;ratioP1;P1;durP2;ratioP2;P2;SDS_P1;SDS_P2;PMS_P1;PMS_P2;Temp;Humidity;BMP_temperature;BMP_pressure;BME280_temperature;BME280_humidity;BME280_pressure;Samples;Min_cycle;Max_cycle;Signal;HPM_P1;HPM_P2
2023/01/14 00:01:14;;;;;;;23.73;4.68;;;;;;;7.92;77.15;101255.56;5044682;28;20140;-64
2023/01/14 00:03:40;;;;;;;24.38;4.13;;;;;;;7.96;77.34;101249.56;5044866;28;20044;-64
2023/01/14 00:06:06;;;;;;;23.77;3.67;;;;;;;7.99;77.28;101245.31;5048826;28;20043;-64
2023/01/14 00:08:32;;;;;;;17.55;3.20;;;;;;;7.99;76.96;101229.00;5045897;28;20064;-64
2023/01/14 00:11:08;;;;;;;17.33;3.85;;;;;;;7.98;76.51;101223.00;5027555;28;20618;-65
2023/01/14 00:13:39;;;;;;;17.02;3.17;;;;;;;7.94;76.95;101225.53;5044207;28;20068;-66
2023/01/14 00:16:06;;;;;;;14.65;3.47;;;;;;;7.86;76.79;101227.19;5049997;28;20547;-65
2023/01/14 00:18:34;;;;;;;17.83;4.10;;;;;;;7.81;77.22;101223.69;5042483;28;20102;-65
2023/01/14 00:20:59;;;;;;;14.70;3.45;;;;;;;7.76;77.42;101217.63;5043171;28;20044;-65
2023/01/14 00:23:26;;;;;;;19.13;3.97;;;;;;;7.75;77.76;101215.91;5043495;28;20587;-65
2023/01/14 00:25:51;;;;;;;17.02;3.30;;;;;;;7.74;77.71;101203.91;5031243;28;20044;-64
2023/01/14 00:28:17;;;;;;;16.30;3.22;;;;;;;7.73;77.07;101205.59;5048400;28;20083;-63
2023/01/14 00:30:42;;;;;;;20.58;4.57;;;;;;;7.73;76.66;101203.03;5045758;28;20040;-64
2023/01/14 00:33:08;;;;;;;15.02;3.10;;;;;;;7.69;77.17;101214.13;5044128;28;20048;-64
2023/01/14 00:35:34;;;;;;;15.70;3.15;;;;;;;7.68;77.42;101216.69;5044345;28;20041;-63
2023/01/14 00:37:59;;;;;;;17.80;3.22;;;;;;;7.71;77.39;101209.88;5046010;28;20098;-64
2023/01/14 00:40:25;;;;;;;13.82;3.60;;;;;;;7.74;76.79;101214.19;5049141;28;20836;-64
2023/01/14 00:42:50;;;;;;;16.50;3.35;;;;;;;7.74;77.07;101216.78;5045893;28;20858;-63
2023/01/14 00:45:16;;;;;;;20.92;3.30;;;;;;;7.70;77.27;101213.28;5043343;28;20044;-63
2023/01/14 00:47:41;;;;;;;15.35;3.53;;;;;;;7.68;77.02;101206.41;5047682;28;20378;-63
2023/01/14 00:50:07;;;;;;;20.67;3.00;;;;;;;7.61;76.79;101213.19;5044653;28;20040;-63
2023/01/14 00:52:32;;;;;;;14.23;2.78;;;;;;;7.63;77.20;101214.06;5028225;28;20174;-64
2023/01/14 00:54:58;;;;;;;15.20;3.28;;;;;;;7.70;77.37;101217.56;5050228;28;20036;-66
2023/01/14 00:57:23;;;;;;;18.17;3.53;;;;;;;7.78;76.91;101227.09;5043649;28;20050;-64
2023/01/14 00:59:48;;;;;;;20.08;3.30;;;;;;;7.87;76.16;101226.31;5044079;28;20033;-64
2023/01/14 01:02:14;;;;;;;15.43;2.92;;;;;;;7.88;76.05;101222.91;5045285;28;20048;-66
2023/01/14 01:04:39;;;;;;;22.52;3.90;;;;;;;7.83;76.31;101222.00;5045923;28;20044;-63
2023/01/14 01:07:05;;;;;;;13.10;3.35;;;;;;;7.81;75.75;101227.13;5048637;28;20120;-63
2023/01/14 01:09:30;;;;;;;21.60;3.35;;;;;;;7.75;76.06;101223.63;5045974;28;20930;-64
2023/01/14 01:11:56;;;;;;;22.00;4.60;;;;;;;7.70;76.48;101233.88;5043627;28;20378;-64
2023/01/14 01:14:21;;;;;;;11.98;2.45;;;;;;;7.71;76.49;101239.91;5045274;28;20041;-63
2023/01/14 01:16:47;;;;;;;25.58;3.78;;;;;;;7.77;76.33;101245.94;5043534;28;20089;-63
2023/01/14 01:19:12;;;;;;;15.45;2.80;;;;;;;7.81;75.96;101236.56;5048459;28;20047;-64
2023/01/14 01:21:38;;;;;;;15.82;3.22;;;;;;;7.89;76.16;101246.06;5045185;28;20714;-63
2023/01/14 01:24:03;;;;;;;14.70;3.33;;;;;;;7.91;75.49;101234.09;5041583;28;20075;-64
2023/01/14 01:26:28;;;;;;;14.73;3.28;;;;;;;7.93;75.22;101236.69;5047414;28;20437;-63
2023/01/14 01:28:56;;;;;;;13.70;2.88;;;;;;;7.93;75.80;101232.41;5043682;28;20126;-64
2023/01/14 01:31:23;;;;;;;11.05;2.33;;;;;;;7.93;75.16;101237.53;5035142;28;20028;-63
2023/01/14 01:33:49;;;;;;;15.10;2.83;;;;;;;7.93;75.48;101237.53;5044996;28;20033;-64
2023/01/14 01:36:18;;;;;;;12.95;2.63;;;;;;;7.97;74.84;101233.28;5046638;28;20433;-64
2023/01/14 01:38:44;;;;;;;14.73;3.25;;;;;;;7.98;74.82;101237.59;5043577;28;20048;-64
2023/01/14 01:41:18;;;;;;;10.85;2.88;;;;;;;8.00;74.85;101229.03;5043360;28;20188;-65
2023/01/14 01:44:00;;;;;;;16.70;3.08;;;;;;;8.00;74.38;101236.78;5045016;28;20107;-64
2023/01/14 01:46:27;;;;;;;23.13;3.33;;;;;;;8.01;74.57;101245.34;5044074;28;20775;-64
2023/01/14 01:48:53;;;;;;;21.50;3.58;;;;;;;7.99;74.92;101250.47;5051391;28;20037;-64
2023/01/14 01:51:22;;;;;;;18.33;2.75;;;;;;;8.00;74.46;101244.50;5052408;28;20032;-64
2023/01/14 01:53:51;;;;;;;14.82;2.70;;;;;;;7.99;74.78;101252.19;5050432;28;20033;-64
2023/01/14 01:56:21;;;;;;;20.05;2.80;;;;;;;7.96;74.68;101252.16;5052548;28;20135;-64
2023/01/14 01:58:50;;;;;;;16.83;3.03;;;;;;;7.94;74.55;101249.56;5046981;28;20538;-64
2023/01/14 02:01:16;;;;;;;18.17;2.78;;;;;;;7.96;74.55;101247.88;5049248;28;20777;-65
2023/01/14 02:03:44;;;;;;;23.08;3.28;;;;;;;7.97;74.52;101243.59;5047741;28;20074;-64
2023/01/14 02:06:11;;;;;;;13.07;2.88;;;;;;;7.97;74.65;101241.03;5029859;28;20045;-64
2023/01/14 02:08:47;;;;;;;18.55;3.80;;;;;;;7.95;74.75;101245.31;5044017;28;20084;-64
2023/01/14 02:11:34;;;;;;;12.60;3.40;;;;;;;7.94;75.10;101244.44;5052317;28;20040;-65
2023/01/14 02:14:37;;;;;;;18.38;3.42;;;;;;;7.93;74.35;101244.41;5048267;28;20103;-64
2023/01/14 02:17:30;;;;;;;10.23;2.15;;;;;;;7.88;74.86;101234.06;5047556;28;20580;-64
2023/01/14 02:20:05;;;;;;;14.98;3.30;;;;;;;7.78;74.81;101229.66;5050042;28;20041;-64
2023/01/14 02:22:33;;;;;;;14.38;3.70;;;;;;;7.69;74.92;101234.72;5049226;28;20559;-64
2023/01/14 02:25:14;;;;;;;16.13;2.58;;;;;;;7.62;75.60;101235.50;5050856;28;20051;-64
2023/01/14 02:28:13;;;;;;;12.98;2.80;;;;;;;7.59;75.63;101227.75;5047716;28;20702;-64
2023/01/14 02:31:02;;;;;;;17.60;2.70;;;;;;;7.59;75.44;101229.47;5044044;28;20048;-64
2023/01/14 02:33:39;;;;;;;15.20;3.45;;;;;;;7.55;75.89;101222.56;5054776;28;20086;-64
2023/01/14 02:36:29;;;;;;;14.10;3.22;;;;;;;7.50;76.08;101222.50;5055101;28;20041;-64
2023/01/14 02:39:01;;;;;;;21.77;3.00;;;;;;;7.50;75.79;101222.50;5055804;28;20040;-64
2023/01/14 02:44:35;;;;;;;16.23;2.80;;;;;;;7.36;76.01;101229.19;5056113;28;20047;-64
2023/01/14 02:47:07;;;;;;;13.60;3.05;;;;;;;7.28;76.31;101230.81;5057158;28;20493;-64
2023/01/14 02:49:37;;;;;;;14.32;3.10;;;;;;;7.18;76.51;101231.56;5054107;28;20463;-64
2023/01/14 02:52:07;;;;;;;28.35;5.22;;;;;;;7.08;77.10;101237.38;5056652;28;20718;-64
2023/01/14 02:54:33;;;;;;;26.00;4.95;;;;;;;7.00;77.27;101228.72;5055613;28;20051;-64
2023/01/14 02:57:18;;;;;;;15.90;2.92;;;;;;;6.91;78.20;101229.44;5055714;28;20041;-64
2023/01/14 02:59:46;;;;;;;7.15;2.25;;;;;;;6.82;78.38;101232.72;5053365;28;20141;-64
2023/01/14 03:02:17;;;;;;;14.13;2.80;;;;;;;6.81;78.35;101225.88;5057941;28;20049;-64
2023/01/14 03:04:57;;;;;;;21.27;3.58;;;;;;;6.82;78.71;101219.03;5054734;28;20472;-64
2023/01/14 03:07:40;;;;;;;14.57;2.92;;;;;;;6.82;79.07;101212.16;5059393;28;20033;-64
2023/01/14 03:10:26;;;;;;;19.15;3.47;;;;;;;6.84;78.76;101197.66;5061020;28;20024;-64
2023/01/14 03:13:13;;;;;;;16.35;3.35;;;;;;;6.86;78.72;101192.53;5058772;28;20509;-64
2023/01/14 03:15:50;;;;;;;18.42;3.38;;;;;;;6.82;78.79;101180.50;5060012;28;20132;-64
2023/01/14 03:18:31;;;;;;;16.00;3.10;;;;;;;6.78;79.08;101182.16;5060339;28;20056;-64
2023/01/14 03:21:10;;;;;;;22.98;3.67;;;;;;;6.70;79.15;101177.78;5060005;28;20036;-64
2023/01/14 03:23:43;;;;;;;24.33;3.58;;;;;;;6.63;79.40;101178.50;5057526;28;20120;-64
2023/01/14 03:26:10;;;;;;;18.70;3.35;;;;;;;6.57;79.64;101169.03;5060417;28;20032;-64
2023/01/14 03:28:40;;;;;;;15.82;3.50;;;;;;;6.53;79.98;101171.50;5060824;28;20511;-64
2023/01/14 03:31:11;;;;;;;16.60;3.85;;;;;;;6.52;79.91;101172.38;5059598;28;20048;-64
2023/01/14 03:33:43;;;;;;;22.33;3.50;;;;;;;6.47;80.19;101161.19;5059680;28;20033;-64
2023/01/14 03:36:12;;;;;;;19.98;4.68;;;;;;;6.44;80.29;101154.25;5058929;28;20518;-64
2023/01/14 03:38:42;;;;;;;19.33;3.60;;;;;;;6.43;80.82;101155.13;5057667;28;20036;-64
2023/01/14 03:41:11;;;;;;;16.83;3.05;;;;;;;6.43;81.38;101149.13;5058752;28;20093;-64
2023/01/14 03:44:05;;;;;;;19.15;3.25;;;;;;;6.43;81.70;101150.00;5057660;28;20452;-64
2023/01/14 03:46:31;;;;;;;21.45;3.72;;;;;;;6.45;81.35;101147.44;5058980;28;20047;-64
2023/01/14 03:48:56;;;;;;;17.45;3.58;;;;;;;6.46;81.17;101138.91;5046779;28;20032;-64
2023/01/14 03:51:38;;;;;;;23.00;3.20;;;;;;;6.48;81.20;101143.22;5048510;28;20040;-64
2023/01/14 03:54:26;;;;;;;15.43;2.90;;;;;;;6.49;80.81;101142.38;5049491;28;20060;-64
2023/01/14 03:57:08;;;;;;;20.45;4.55;;;;;;;6.54;81.16;101142.44;5049369;28;20529;-65
2023/01/14 03:59:55;;;;;;;23.48;3.78;;;;;;;6.53;80.99;101144.13;5050812;28;20406;-65
2023/01/14 04:02:22;;;;;;;15.65;3.58;;;;;;;6.55;81.44;101142.47;5048057;28;21312;-66
2023/01/14 04:04:49;;;;;;;13.40;2.83;;;;;;;6.57;80.86;101145.91;5046465;28;20982;-65
2023/01/14 04:07:15;;;;;;;13.43;3.53;;;;;;;6.55;81.45;101146.72;5051746;28;20046;-65
2023/01/14 04:09:40;;;;;;;18.20;3.13;;;;;;;6.54;81.37;101145.88;5044543;28;20025;-65
2023/01/14 04:12:06;;;;;;;33.40;4.20;;;;;;;6.54;81.42;101145.88;5047211;28;20683;-65
2023/01/14 04:17:16;;;;;;;19.02;2.78;;;;;;;6.60;81.29;101135.69;5049909;28;20102;-65
2023/01/14 04:19:41;;;;;;;15.70;3.88;;;;;;;6.64;81.24;101132.31;5051822;28;20044;-65
2023/01/14 04:22:06;;;;;;;18.10;3.15;;;;;;;6.65;81.45;101128.00;5034286;28;20072;-65
2023/01/14 04:24:32;;;;;;;16.08;3.58;;;;;;;6.68;81.26;101120.34;5043697;28;20044;-66
2023/01/14 04:26:57;;;;;;;15.50;2.97;;;;;;;6.72;81.04;101124.69;5042727;28;20143;-65
2023/01/14 04:29:22;;;;;;;18.90;3.25;;;;;;;6.74;80.99;101123.00;5047688;28;20041;-65
2023/01/14 04:31:48;;;;;;;18.05;3.15;;;;;;;6.75;81.05;101110.19;5055194;28;20041;-65
2023/01/14 04:34:13;;;;;;;18.23;3.70;;;;;;;6.80;80.87;101115.38;5042399;28;20035;-64
2023/01/14 04:36:40;;;;;;;20.65;3.08;;;;;;;6.83;80.60;101108.56;5044845;28;20037;-65
2023/01/14 04:39:05;;;;;;;14.63;3.17;;;;;;;6.85;80.21;101104.31;5045523;28;20145;-65
2023/01/14 04:44:14;;;;;;;13.90;2.63;;;;;;;6.85;80.54;101103.47;5044617;28;20098;-65
2023/01/14 04:46:40;;;;;;;11.48;2.80;;;;;;;6.84;80.36;101097.47;5043667;28;20059;-65
2023/01/14 04:49:05;;;;;;;20.58;3.63;;;;;;;6.82;80.27;101091.41;5044032;28;20028;-66
2023/01/14 04:51:31;;;;;;;19.05;3.17;;;;;;;6.82;80.66;101082.88;5035484;28;20071;-64
2023/01/14 04:53:56;;;;;;;22.40;3.75;;;;;;;6.82;80.44;101077.75;5048509;28;20449;-65
2023/01/14 04:56:22;;;;;;;19.15;4.28;;;;;;;6.80;80.33;101072.56;5045971;28;20041;-64
2023/01/14 04:58:47;;;;;;;19.02;4.30;;;;;;;6.80;80.37;101066.56;5048454;28;20037;-64
2023/01/14 05:01:12;;;;;;;13.55;3.42;;;;;;;6.83;80.81;101067.47;5051988;28;20047;-64
2023/01/14 05:03:38;;;;;;;15.40;4.05;;;;;;;6.84;80.62;101076.03;5045537;28;20063;-64
2023/01/14 05:06:04;;;;;;;21.85;3.13;;;;;;;6.83;80.75;101070.03;5047943;28;20082;-64
2023/01/14 05:08:29;;;;;;;18.67;4.75;;;;;;;6.87;80.39;101065.78;5044334;28;20128;-64
2023/01/14 05:10:55;;;;;;;12.57;2.85;;;;;;;6.85;80.57;101055.47;5041898;28;20037;-64
2023/01/14 05:13:20;;;;;;;11.25;3.05;;;;;;;6.88;80.25;101055.53;5043967;28;20102;-63
2023/01/14 05:15:46;;;;;;;16.13;2.80;;;;;;;6.89;80.07;101044.41;5043541;28;20029;-62
2023/01/14 05:18:13;;;;;;;15.07;3.17;;;;;;;6.86;80.77;101053.78;5044897;28;20640;-62
2023/01/14 05:20:40;;;;;;;17.10;3.17;;;;;;;6.88;80.05;101046.97;5048623;28;20413;-62
2023/01/14 05:23:10;;;;;;;15.77;3.47;;;;;;;6.87;80.28;101040.97;5046857;28;20043;-62
2023/01/14 05:25:35;;;;;;;23.20;2.88;;;;;;;6.89;80.22;101033.25;5052701;28;20047;-62
2023/01/14 05:28:14;;;;;;;15.65;3.85;;;;;;;6.92;80.15;101033.28;5049350;28;20040;-62
2023/01/14 05:30:40;;;;;;;12.25;2.47;;;;;;;6.97;79.87;101020.50;5053594;28;20421;-62
2023/01/14 05:33:05;;;;;;;20.58;3.40;;;;;;;7.03;79.10;101023.16;5045933;28;20040;-62
2023/01/14 05:35:32;;;;;;;18.00;2.90;;;;;;;7.07;79.24;101020.59;5043507;28;20040;-62
2023/01/14 05:37:58;;;;;;;19.27;3.08;;;;;;;7.09;79.17;101012.94;5045742;28;20049;-63
2023/01/14 05:40:23;;;;;;;18.35;3.55;;;;;;;7.14;78.73;101006.97;5045573;28;20036;-62
2023/01/14 05:45:48;;;;;;;25.47;3.47;;;;;;;7.16;78.91;101010.44;5050948;28;20678;-62
2023/01/14 05:48:24;;;;;;;13.80;3.10;;;;;;;7.17;78.54;101006.16;5048559;28;20041;-63
2023/01/14 05:50:57;;;;;;;14.95;2.80;;;;;;;7.17;78.78;101001.03;5044723;28;20113;-62
2023/01/14 05:53:23;;;;;;;12.90;2.85;;;;;;;7.15;78.86;100984.72;5041964;28;20044;-63
2023/01/14 05:55:49;;;;;;;15.75;3.03;;;;;;;7.17;78.90;100978.75;5049088;28;20033;-63
2023/01/14 05:58:15;;;;;;;18.92;3.17;;;;;;;7.22;78.58;100977.09;5049314;28;20040;-62
2023/01/14 06:06:28;;;;;;;27.90;5.32;;;;;;;7.34;78.10;100951.47;5048905;28;20536;-63
2023/01/14 06:09:11;;;;;;;20.17;3.90;;;;;;;7.41;77.93;100949.81;5045451;28;20784;-63
2023/01/14 06:12:01;;;;;;;11.73;2.38;;;;;;;7.52;77.65;100939.59;5044025;28;20040;-65
2023/01/14 06:14:31;;;;;;;8.32;2.67;;;;;;;7.55;77.27;100945.63;5046342;28;20036;-62
2023/01/14 06:16:57;;;;;;;17.85;2.88;;;;;;;7.59;77.36;100941.38;5045630;28;20036;-62
2023/01/14 06:19:23;;;;;;;13.40;2.40;;;;;;;7.69;76.40;100931.13;5042858;28;20055;-62
2023/01/14 06:21:50;;;;;;;12.07;3.10;;;;;;;7.71;76.07;100918.28;5048667;28;20051;-63
2023/01/14 06:24:16;;;;;;;15.35;3.22;;;;;;;7.78;75.33;100917.44;5048784;28;20041;-63
2023/01/14 06:26:41;;;;;;;23.58;2.80;;;;;;;7.81;75.60;100913.19;5047824;28;20040;-63
2023/01/14 06:29:09;;;;;;;13.73;2.40;;;;;;;7.83;75.57;100908.06;5051352;28;20044;-62
2023/01/14 06:31:37;;;;;;;13.73;2.75;;;;;;;7.83;76.37;100911.47;5051256;28;20399;-62
2023/01/14 06:34:03;;;;;;;13.35;2.78;;;;;;;7.85;75.21;100898.63;5048069;28;20047;-63
2023/01/14 06:36:29;;;;;;;16.83;2.38;;;;;;;7.86;75.26;100893.47;5048866;28;20129;-62
2023/01/14 06:38:55;;;;;;;10.48;2.97;;;;;;;7.91;74.82;100878.94;5046549;28;20041;-63
2023/01/14 06:41:20;;;;;;;19.52;3.50;;;;;;;7.96;74.66;100884.09;5045774;28;20041;-63
2023/01/14 06:43:46;;;;;;;17.52;2.90;;;;;;;7.94;75.04;100873.81;5044562;28;20044;-62
2023/01/14 06:46:14;;;;;;;14.73;2.33;;;;;;;7.95;74.85;100872.09;5038554;28;20033;-62
2023/01/14 06:48:40;;;;;;;11.90;3.00;;;;;;;7.90;75.33;100876.34;5044220;28;20037;-62
2023/01/14 06:51:12;;;;;;;10.38;2.33;;;;;;;7.85;75.12;100873.75;5047964;28;20071;-62
2023/01/14 06:53:37;;;;;;;8.35;1.92;;;;;;;7.81;75.83;100876.28;5038945;28;20067;-63
2023/01/14 06:56:12;;;;;;;13.75;3.00;;;;;;;7.76;75.87;100863.41;5045343;28;20041;-63
2023/01/14 06:58:39;;;;;;;15.98;2.83;;;;;;;7.71;76.34;100854.84;5048817;28;20051;-63
2023/01/14 07:01:05;;;;;;;12.30;3.10;;;;;;;7.71;76.35;100853.97;5050058;28;20497;-62
2023/01/14 07:03:31;;;;;;;15.68;2.90;;;;;;;7.67;76.96;100842.78;5048915;28;20044;-63
2023/01/14 07:05:58;;;;;;;16.55;3.72;;;;;;;7.67;77.11;100839.34;5045206;28;20798;-63
2023/01/14 07:08:24;;;;;;;20.17;3.97;;;;;;;7.65;77.00;100834.22;5050791;28;20082;-62
2023/01/14 07:10:50;;;;;;;14.88;3.50;;;;;;;7.63;77.42;100823.03;5047591;28;20397;-63
2023/01/14 07:13:19;;;;;;;16.60;3.30;;;;;;;7.62;77.39;100816.19;5051287;28;20032;-62
2023/01/14 07:15:45;;;;;;;14.02;3.17;;;;;;;7.65;76.96;100812.78;5054731;28;20036;-63
2023/01/14 07:18:11;;;;;;;9.10;2.78;;;;;;;7.64;77.09;100823.91;5046542;28;20036;-62
2023/01/14 07:20:38;;;;;;;10.60;4.07;;;;;;;7.65;76.91;100815.34;5048433;28;20519;-63
2023/01/14 07:23:04;;;;;;;14.00;3.10;;;;;;;7.66;76.73;100812.78;5048865;28;20093;-63
2023/01/14 07:25:29;;;;;;;12.88;3.30;;;;;;;7.69;76.72;100812.78;5050126;28;20392;-63
2023/01/14 07:27:55;;;;;;;20.70;4.68;;;;;;;7.70;76.62;100803.34;5053943;28;20758;-62
2023/01/14 07:30:20;;;;;;;15.95;5.68;;;;;;;7.71;77.12;100799.94;5050361;28;20036;-63
2023/01/14 07:32:46;;;;;;;13.77;3.47;;;;;;;7.79;75.91;100793.97;5048941;28;20037;-63
2023/01/14 07:35:11;;;;;;;15.57;3.65;;;;;;;7.86;76.99;100795.69;5051869;28;20053;-64
2023/01/14 07:37:37;;;;;;;17.85;3.53;;;;;;;7.89;77.53;100795.69;5033033;28;20093;-62
2023/01/14 07:40:04;;;;;;;16.10;3.42;;;;;;;7.84;77.82;100792.25;5048393;28;20040;-62
2023/01/14 07:42:29;;;;;;;21.65;5.20;;;;;;;7.79;80.05;100775.94;5046561;28;20040;-62
2023/01/14 07:44:54;;;;;;;17.73;3.30;;;;;;;7.71;80.06;100769.94;5049796;28;20039;-63
2023/01/14 07:47:20;;;;;;;22.15;3.45;;;;;;;7.66;80.68;100760.47;5050450;28;20033;-63
2023/01/14 07:49:45;;;;;;;20.50;3.15;;;;;;;7.67;79.97;100751.91;5046871;28;20052;-63
2023/01/14 07:52:14;;;;;;;11.05;2.63;;;;;;;7.63;80.43;100742.44;5049108;28;20079;-63
2023/01/14 07:54:43;;;;;;;18.73;3.00;;;;;;;7.68;80.53;100715.03;5051822;28;20051;-63
2023/01/14 07:57:10;;;;;;;10.95;2.92;;;;;;;7.75;79.69;100693.59;5048567;28;20036;-63
2023/01/14 07:59:37;;;;;;;8.05;2.72;;;;;;;7.78;79.80;100691.03;5044587;28;20796;-62
2023/01/14 08:02:04;;;;;;;11.65;2.75;;;;;;;7.80;79.58;100690.16;5048766;28;20041;-62
2023/01/14 08:04:30;;;;;;;12.77;2.72;;;;;;;7.83;79.53;100686.78;5052737;28;20084;-62
2023/01/14 08:06:58;;;;;;;14.43;2.78;;;;;;;7.81;80.39;100707.34;5051679;28;20127;-63
2023/01/14 08:09:25;;;;;;;13.95;2.92;;;;;;;7.84;79.19;100711.63;5047571;28;20045;-64
2023/01/14 08:11:51;;;;;;;13.60;3.53;;;;;;;7.95;78.87;100715.09;5048715;28;20205;-63
2023/01/14 08:14:17;;;;;;;10.65;2.28;;;;;;;7.99;78.44;100720.22;5048233;28;20032;-62
2023/01/14 08:16:42;;;;;;;16.15;2.80;;;;;;;8.04;79.41;100730.53;5048871;28;20033;-62
2023/01/14 08:19:07;;;;;;;13.35;2.67;;;;;;;8.06;79.62;100733.09;5049014;28;20048;-63
2023/01/14 08:21:33;;;;;;;8.20;2.22;;;;;;;8.08;79.03;100737.41;5043183;28;20036;-62
2023/01/14 08:23:58;;;;;;;13.13;2.80;;;;;;;8.13;79.14;100729.69;5041263;28;20044;-63
2023/01/14 08:26:24;;;;;;;8.38;2.13;;;;;;;8.16;78.78;100722.81;5038636;28;20029;-63
2023/01/14 08:28:49;;;;;;;15.30;3.03;;;;;;;8.20;78.77;100698.78;5045834;28;20052;-63
2023/01/14 08:31:16;;;;;;;13.77;3.20;;;;;;;8.24;79.00;100692.81;5042582;28;20593;-63
2023/01/14 08:33:43;;;;;;;14.65;3.13;;;;;;;8.31;78.66;100685.91;5049760;28;20051;-63
2023/01/14 08:36:15;;;;;;;12.15;3.47;;;;;;;8.35;78.75;100691.06;5055190;28;20121;-63
2023/01/14 08:38:44;;;;;;;9.65;2.40;;;;;;;8.40;78.46;100683.31;5050839;28;20753;-62
2023/01/14 08:41:15;;;;;;;10.32;1.75;;;;;;;8.44;78.60;100674.75;5050384;28;20188;-63
2023/01/14 08:43:41;;;;;;;10.20;3.22;;;;;;;8.48;79.00;100664.44;5023365;28;20082;-63
2023/01/14 08:46:10;;;;;;;6.05;1.63;;;;;;;8.55;78.69;100667.84;5047179;28;20033;-63
2023/01/14 08:48:36;;;;;;;6.85;1.70;;;;;;;8.60;77.89;100648.13;5047635;28;20044;-63
2023/01/14 08:51:11;;;;;;;3.53;1.63;;;;;;;8.61;78.52;100647.22;5048192;28;20064;-63
2023/01/14 08:53:38;;;;;;;10.07;1.58;;;;;;;8.65;78.36;100642.94;5041562;28;20036;-63
2023/01/14 08:56:05;;;;;;;6.78;1.90;;;;;;;8.70;78.23;100630.88;5047531;28;20044;-63
2023/01/14 08:58:31;;;;;;;6.20;1.27;;;;;;;8.76;77.87;100616.28;5040643;28;20115;-63
2023/01/14 09:01:00;;;;;;;4.78;1.60;;;;;;;8.83;77.53;100601.66;5046243;28;20034;-63
2023/01/14 09:03:27;;;;;;;5.60;0.90;;;;;;;8.87;77.40;100586.16;5047502;28;20544;-63
2023/01/14 09:05:57;;;;;;;4.60;1.38;;;;;;;8.87;78.05;100588.72;5049844;28;20040;-64
2023/01/14 09:19:24;;;;;;;7.43;0.90;;;;;;;9.07;77.33;100568.03;5049702;28;20035;-63
2023/01/14 09:21:49;;;;;;;3.80;1.08;;;;;;;9.10;76.84;100560.28;5044196;28;20028;-62
2023/01/14 09:24:15;;;;;;;3.35;0.70;;;;;;;9.12;77.27;100554.25;5025206;28;20097;-64
2023/01/14 09:26:41;;;;;;;3.95;0.75;;;;;;;9.14;77.59;100562.81;5030347;28;20102;-63
2023/01/14 09:29:06;;;;;;;3.67;0.73;;;;;;;9.22;77.50;100561.94;5045885;28;20041;-63
2023/01/14 09:31:31;;;;;;;4.30;0.88;;;;;;;9.22;77.78;100562.78;5043546;28;20579;-63
2023/01/14 09:33:57;;;;;;;2.63;0.95;;;;;;;9.26;77.29;100555.91;5046005;28;20777;-63
2023/01/14 09:36:22;;;;;;;2.78;0.70;;;;;;;9.30;76.65;100550.69;5045503;28;20087;-63
2023/01/14 09:38:47;;;;;;;2.22;0.80;;;;;;;9.31;76.66;100562.72;5047212;28;20447;-64
2023/01/14 09:41:48;;;;;;;5.55;0.90;;;;;;;9.42;75.88;100539.44;5047491;28;20040;-63
2023/01/14 09:44:13;;;;;;;2.60;0.77;;;;;;;9.47;76.50;100530.78;5035401;28;20131;-63
2023/01/14 09:46:38;;;;;;;3.33;0.98;;;;;;;9.54;76.26;100531.59;5047938;28;20037;-64
2023/01/14 09:49:06;;;;;;;2.20;0.90;;;;;;;9.59;76.32;100516.97;5048346;28;20558;-64
2023/01/14 09:52:03;;;;;;;4.80;0.90;;;;;;;9.68;75.56;100509.13;5050142;28;20037;-63
2023/01/14 09:54:52;;;;;;;3.83;0.80;;;;;;;9.71;76.41;100503.09;5043506;28;20091;-63
2023/01/14 09:57:26;;;;;;;3.72;0.90;;;;;;;9.72;75.96;100490.19;5036343;28;20041;-63
2023/01/14 10:00:02;;;;;;;4.90;1.30;;;;;;;9.75;76.34;100485.00;5045344;28;20053;-63
2023/01/14 10:02:39;;;;;;;5.82;0.98;;;;;;;9.78;76.41;100489.28;5044086;28;20632;-63
2023/01/14 10:05:32;;;;;;;7.45;0.98;;;;;;;9.86;75.35;100467.66;5043601;28;20071;-64
2023/01/14 10:08:01;;;;;;;1.90;0.73;;;;;;;9.87;75.81;100461.66;5048269;28;20048;-64
2023/01/14 10:10:31;;;;;;;6.53;1.38;;;;;;;9.90;75.59;100446.13;5046733;28;20139;-63
2023/01/14 10:13:02;;;;;;;4.47;0.98;;;;;;;9.93;75.40;100422.00;5046723;28;20607;-63
2023/01/14 10:15:34;;;;;;;2.80;0.77;;;;;;;9.95;75.23;100425.41;5049487;28;20040;-63
2023/01/14 10:18:18;;;;;;;2.08;0.73;;;;;;;9.95;75.53;100413.34;5048659;28;20041;-63
2023/01/14 10:20:49;;;;;;;4.82;0.80;;;;;;;9.97;75.52;100427.09;5051807;28;20075;-63
2023/01/14 10:23:20;;;;;;;3.85;0.93;;;;;;;10.02;75.24;100420.16;5045187;28;20091;-63
2023/01/14 10:25:51;;;;;;;7.13;1.00;;;;;;;10.07;74.61;100399.44;5049596;28;20040;-65
2023/01/14 10:28:20;;;;;;;2.90;0.85;;;;;;;10.10;75.42;100396.81;5047867;28;20024;-64
2023/01/14 10:30:48;;;;;;;5.93;1.10;;;;;;;10.10;75.32;100395.09;5051383;28;20608;-65
2023/01/14 10:33:15;;;;;;;9.98;1.75;;;;;;;10.09;75.00;100382.19;5049106;28;20090;-65
2023/01/14 10:35:48;;;;;;;4.65;1.02;;;;;;;10.08;76.14;100378.78;5048159;28;20048;-65
2023/01/14 10:38:18;;;;;;;4.60;1.15;;;;;;;10.12;75.88;100364.06;5045827;28;20287;-65
2023/01/14 10:40:46;;;;;;;1.67;0.80;;;;;;;10.13;75.14;100361.50;5046023;28;20040;-64
2023/01/14 10:43:28;;;;;;;4.90;1.13;;;;;;;10.16;75.47;100345.97;5049073;28;20489;-65
2023/01/14 10:45:54;;;;;;;3.25;1.30;;;;;;;10.16;75.34;100356.28;5050218;28;20061;-64
2023/01/14 10:48:21;;;;;;;6.18;1.27;;;;;;;10.19;75.41;100351.09;5047175;28;20059;-65
2023/01/14 10:50:47;;;;;;;12.73;1.98;;;;;;;10.21;74.57;100349.31;5047830;28;20098;-64
2023/01/14 10:53:22;;;;;;;4.40;1.13;;;;;;;10.27;74.88;100343.22;5031536;28;20047;-64
2023/01/14 10:55:52;;;;;;;4.50;1.15;;;;;;;10.27;75.62;100355.31;5049358;28;20068;-65
2023/01/14 10:58:43;;;;;;;6.18;1.95;;;;;;;10.27;75.65;100332.88;5044794;28;20036;-64
2023/01/14 11:01:11;;;;;;;6.40;2.00;;;;;;;10.31;74.89;100325.94;5046862;28;20035;-64
2023/01/14 11:03:42;;;;;;;4.00;1.50;;;;;;;10.34;75.14;100326.75;5053461;28;20040;-65
2023/01/14 11:06:16;;;;;;;4.45;1.17;;;;;;;10.38;74.83;100322.41;5056041;28;20101;-64
2023/01/14 11:08:48;;;;;;;4.63;1.00;;;;;;;10.44;74.60;100296.50;5040950;28;20449;-64
2023/01/14 11:11:25;;;;;;;6.82;1.30;;;;;;;10.45;74.45;100285.25;5049828;28;20037;-64
2023/01/14 11:13:53;;;;;;;2.95;1.00;;;;;;;10.44;75.87;100280.97;5049391;28;20131;-65
2023/01/14 11:16:21;;;;;;;3.22;0.95;;;;;;;10.38;76.40;100279.34;5046364;28;20033;-65
2023/01/14 11:18:56;;;;;;;3.28;0.70;;;;;;;10.27;77.41;100270.06;5048870;28;20055;-65
2023/01/14 11:21:23;;;;;;;2.20;0.93;;;;;;;10.08;79.26;100275.50;5044820;28;20048;-64
2023/01/14 11:24:01;;;;;;;5.00;1.52;;;;;;;9.96;80.27;100261.91;5048098;28;20075;-64
2023/01/14 11:26:38;;;;;;;1.00;0.60;;;;;;;9.78;83.48;100262.13;5049935;28;20075;-65
2023/01/14 11:29:24;;;;;;;2.60;0.90;;;;;;;9.68;83.34;100266.56;5050974;28;20128;-64
2023/01/14 11:31:53;;;;;;;3.05;1.00;;;;;;;9.63;83.72;100260.59;5034314;28;20045;-64
2023/01/14 11:34:28;;;;;;;3.80;0.93;;;;;;;9.59;84.45;100257.22;5046472;28;20104;-64
2023/01/14 11:37:24;;;;;;;2.10;0.85;;;;;;;9.56;84.84;100243.47;5057583;28;20131;-65
2023/01/14 11:39:52;;;;;;;2.92;0.95;;;;;;;9.55;85.30;100237.47;5054097;28;20610;-65
2023/01/14 11:42:23;;;;;;;3.38;0.80;;;;;;;9.52;85.81;100236.66;5055217;28;20044;-64
2023/01/14 11:45:07;;;;;;;2.88;0.80;;;;;;;9.53;86.37;100234.03;5050165;28;20082;-64
2023/01/14 11:47:44;;;;;;;1.13;0.60;;;;;;;9.51;86.76;100227.19;5058772;28;20052;-64
2023/01/14 11:50:11;;;;;;;2.33;0.93;;;;;;;9.51;85.88;100225.47;5055805;28;20075;-65
2023/01/14 11:52:37;;;;;;;6.25;1.15;;;;;;;9.50;86.75;100221.16;5056176;28;20986;-65
2023/01/14 11:55:03;;;;;;;2.78;0.90;;;;;;;9.51;85.97;100211.72;5040867;28;20143;-64
2023/01/14 11:57:28;;;;;;;2.88;1.00;;;;;;;9.49;86.75;100198.84;5056341;28;20504;-64
2023/01/14 11:59:54;;;;;;;5.40;1.73;;;;;;;9.47;87.03;100185.09;5052925;28;20032;-65
2023/01/14 12:02:30;;;;;;;3.42;0.93;;;;;;;9.46;87.37;100186.00;5056100;28;20132;-64
2023/01/14 12:05:12;;;;;;;2.08;1.08;;;;;;;9.41;88.32;100168.84;5053202;28;20037;-65
2023/01/14 12:07:49;;;;;;;4.30;1.05;;;;;;;9.42;87.79;100155.94;5052913;28;20386;-66